sensor_id;sensor_type;location;lat;lon;timestamp;temperature;humidity
12434;DHT22;6281;49.038;8.372;2022-12-22T00:02:24;11.80;99.90
12434;DHT22;6281;49.038;8.372;2022-12-22T00:05:14;11.90;99.90
12434;DHT22;6281;49.038;8.372;2022-12-22T00:08:35;11.90;99.90
12434;DHT22;6281;49.038;8.372;2022-12-22T00:11:19;11.90;99.90
12434;DHT22;6281;49.038;8.372;2022-12-22T00:14:04;11.80;99.90
12434;DHT22;6281;49.038;8.372;2022-12-22T00:16:48;11.70;99.90
12434;DHT22;6281;49.038;8.372;2022-12-22T00:19:32;11.60;99.90
12434;DHT22;6281;49.038;8.372;2022-12-22T00:22:20;11.60;99.90
12434;DHT22;6281;49.038;8.372;2022-12-22T00:25:05;11.50;99.90
12434;DHT22;6281;49.038;8.372;2022-12-22T00:27:55;11.50;99.90
12434;DHT22;6281;49.038;8.372;2022-12-22T00:30:40;11.30;99.90
12434;DHT22;6281;49.038;8.372;2022-12-22T00:33:25;11.10;99.90
12434;DHT22;6281;49.038;8.372;2022-12-22T00:36:10;11.00;99.90
12434;DHT22;6281;49.038;8.372;2022-12-22T00:38:56;10.90;99.90
12434;DHT22;6281;49.038;8.372;2022-12-22T00:41:42;10.80;99.90
12434;DHT22;6281;49.038;8.372;2022-12-22T00:44:26;10.70;99.90
12434;DHT22;6281;49.038;8.372;2022-12-22T00:47:12;10.70;99.90
12434;DHT22;6281;49.038;8.372;2022-12-22T00:49:57;10.70;99.90
12434;DHT22;6281;49.038;8.372;2022-12-22T00:52:41;10.50;99.90
12434;DHT22;6281;49.038;8.372;2022-12-22T00:55:29;10.60;99.90
12434;DHT22;6281;49.038;8.372;2022-12-22T00:58:16;10.50;99.90
12434;DHT22;6281;49.038;8.372;2022-12-22T01:01:01;10.60;99.90
12434;DHT22;6281;49.038;8.372;2022-12-22T01:03:45;10.70;99.90
12434;DHT22;6281;49.038;8.372;2022-12-22T01:06:31;10.70;99.90
12434;DHT22;6281;49.038;8.372;2022-12-22T01:09:18;10.60;99.90
12434;DHT22;6281;49.038;8.372;2022-12-22T01:12:09;10.30;99.90
12434;DHT22;6281;49.038;8.372;2022-12-22T01:14:54;10.10;99.90
12434;DHT22;6281;49.038;8.372;2022-12-22T01:17:38;10.10;99.90
12434;DHT22;6281;49.038;8.372;2022-12-22T01:20:22;10.10;99.90
12434;DHT22;6281;49.038;8.372;2022-12-22T01:23:09;10.30;99.90
12434;DHT22;6281;49.038;8.372;2022-12-22T01:25:53;10.20;99.90
12434;DHT22;6281;49.038;8.372;2022-12-22T01:28:39;10.30;99.90
12434;DHT22;6281;49.038;8.372;2022-12-22T01:31:28;10.40;99.90
12434;DHT22;6281;49.038;8.372;2022-12-22T01:34:13;10.50;99.90
12434;DHT22;6281;49.038;8.372;2022-12-22T01:36:57;10.60;99.90
12434;DHT22;6281;49.038;8.372;2022-12-22T01:39:42;10.70;99.90
12434;DHT22;6281;49.038;8.372;2022-12-22T01:42:26;10.70;99.90
12434;DHT22;6281;49.038;8.372;2022-12-22T01:45:20;10.70;99.90
12434;DHT22;6281;49.038;8.372;2022-12-22T01:48:09;10.80;99.90
12434;DHT22;6281;49.038;8.372;2022-12-22T01:50:54;10.90;99.90
12434;DHT22;6281;49.038;8.372;2022-12-22T01:53:39;10.90;99.90
12434;DHT22;6281;49.038;8.372;2022-12-22T01:56:24;10.90;99.90
12434;DHT22;6281;49.038;8.372;2022-12-22T01:59:08;11.00;99.90
12434;DHT22;6281;49.038;8.372;2022-12-22T02:01:53;11.00;99.90
12434;DHT22;6281;49.038;8.372;2022-12-22T02:04:41;11.00;99.90
12434;DHT22;6281;49.038;8.372;2022-12-22T02:07:40;11.00;99.90
12434;DHT22;6281;49.038;8.372;2022-12-22T02:13:49;11.00;99.90
12434;DHT22;6281;49.038;8.372;2022-12-22T02:16:41;11.10;99.90
12434;DHT22;6281;49.038;8.372;2022-12-22T02:19:44;11.10;99.90
12434;DHT22;6281;49.038;8.372;2022-12-22T02:22:37;11.10;99.90
12434;DHT22;6281;49.038;8.372;2022-12-22T02:25:29;11.10;99.90
12434;DHT22;6281;49.038;8.372;2022-12-22T02:28:19;11.20;99.90
12434;DHT22;6281;49.038;8.372;2022-12-22T02:31:05;11.10;99.90
12434;DHT22;6281;49.038;8.372;2022-12-22T02:33:49;11.20;99.90
12434;DHT22;6281;49.038;8.372;2022-12-22T02:36:41;11.20;99.90
12434;DHT22;6281;49.038;8.372;2022-12-22T02:39:35;11.10;99.90
12434;DHT22;6281;49.038;8.372;2022-12-22T02:42:28;11.00;99.90
12434;DHT22;6281;49.038;8.372;2022-12-22T02:45:23;11.00;99.90
12434;DHT22;6281;49.038;8.372;2022-12-22T02:48:12;11.00;99.90
12434;DHT22;6281;49.038;8.372;2022-12-22T02:51:02;11.00;99.90
12434;DHT22;6281;49.038;8.372;2022-12-22T02:53:48;11.00;99.90
12434;DHT22;6281;49.038;8.372;2022-12-22T02:56:35;11.00;99.90
12434;DHT22;6281;49.038;8.372;2022-12-22T02:59:20;11.10;99.90
12434;DHT22;6281;49.038;8.372;2022-12-22T03:02:05;11.10;99.90
12434;DHT22;6281;49.038;8.372;2022-12-22T03:04:50;11.10;99.90
12434;DHT22;6281;49.038;8.372;2022-12-22T03:07:34;11.00;99.90
12434;DHT22;6281;49.038;8.372;2022-12-22T03:10:18;11.00;99.90
12434;DHT22;6281;49.038;8.372;2022-12-22T03:13:02;11.10;99.90
12434;DHT22;6281;49.038;8.372;2022-12-22T03:15:46;11.00;99.90
12434;DHT22;6281;49.038;8.372;2022-12-22T03:18:32;11.00;99.90
12434;DHT22;6281;49.038;8.372;2022-12-22T03:21:16;11.10;99.90
12434;DHT22;6281;49.038;8.372;2022-12-22T03:24:00;11.00;99.90
12434;DHT22;6281;49.038;8.372;2022-12-22T03:26:44;11.00;99.90
12434;DHT22;6281;49.038;8.372;2022-12-22T03:29:11;11.10;99.90
12434;DHT22;6281;49.038;8.372;2022-12-22T03:31:37;11.10;99.90
12434;DHT22;6281;49.038;8.372;2022-12-22T03:34:06;11.10;99.90
12434;DHT22;6281;49.038;8.372;2022-12-22T03:36:32;11.00;99.90
12434;DHT22;6281;49.038;8.372;2022-12-22T03:39:00;11.10;99.90
12434;DHT22;6281;49.038;8.372;2022-12-22T03:41:27;11.10;99.90
12434;DHT22;6281;49.038;8.372;2022-12-22T03:44:11;11.20;99.90
12434;DHT22;6281;49.038;8.372;2022-12-22T03:46:56;11.10;99.90
12434;DHT22;6281;49.038;8.372;2022-12-22T03:49:24;11.10;99.90
12434;DHT22;6281;49.038;8.372;2022-12-22T03:51:52;11.00;99.90
12434;DHT22;6281;49.038;8.372;2022-12-22T03:54:20;10.90;99.90
12434;DHT22;6281;49.038;8.372;2022-12-22T03:56:48;10.90;99.90
12434;DHT22;6281;49.038;8.372;2022-12-22T03:59:15;10.90;99.90
12434;DHT22;6281;49.038;8.372;2022-12-22T04:01:44;10.70;99.90
12434;DHT22;6281;49.038;8.372;2022-12-22T04:04:12;10.60;99.90
12434;DHT22;6281;49.038;8.372;2022-12-22T04:06:41;10.60;99.90
12434;DHT22;6281;49.038;8.372;2022-12-22T04:09:09;10.50;99.90
12434;DHT22;6281;49.038;8.372;2022-12-22T04:11:36;10.50;99.90
12434;DHT22;6281;49.038;8.372;2022-12-22T04:14:20;10.50;99.90
12434;DHT22;6281;49.038;8.372;2022-12-22T04:16:48;10.50;99.90
12434;DHT22;6281;49.038;8.372;2022-12-22T04:19:15;10.40;99.90
12434;DHT22;6281;49.038;8.372;2022-12-22T04:21:43;10.40;99.90
12434;DHT22;6281;49.038;8.372;2022-12-22T04:24:11;10.40;99.90
12434;DHT22;6281;49.038;8.372;2022-12-22T04:26:38;10.40;99.90
12434;DHT22;6281;49.038;8.372;2022-12-22T04:29:05;10.40;99.90
12434;DHT22;6281;49.038;8.372;2022-12-22T04:31:31;10.50;99.90
12434;DHT22;6281;49.038;8.372;2022-12-22T04:33:58;10.60;99.90
12434;DHT22;6281;49.038;8.372;2022-12-22T04:36:25;10.70;99.90
12434;DHT22;6281;49.038;8.372;2022-12-22T04:38:53;10.70;99.90
12434;DHT22;6281;49.038;8.372;2022-12-22T04:41:20;10.80;99.90
12434;DHT22;6281;49.038;8.372;2022-12-22T04:43:47;10.80;99.90
12434;DHT22;6281;49.038;8.372;2022-12-22T04:46:14;10.80;99.90
12434;DHT22;6281;49.038;8.372;2022-12-22T04:48:41;10.90;99.90
12434;DHT22;6281;49.038;8.372;2022-12-22T04:51:08;10.90;99.90
12434;DHT22;6281;49.038;8.372;2022-12-22T04:53:35;10.80;99.90
12434;DHT22;6281;49.038;8.372;2022-12-22T04:56:06;11.00;99.90
12434;DHT22;6281;49.038;8.372;2022-12-22T04:58:33;11.00;99.90
12434;DHT22;6281;49.038;8.372;2022-12-22T05:01:07;11.00;99.90
12434;DHT22;6281;49.038;8.372;2022-12-22T05:03:35;11.10;99.90
12434;DHT22;6281;49.038;8.372;2022-12-22T05:06:02;11.00;99.90
12434;DHT22;6281;49.038;8.372;2022-12-22T05:08:29;11.10;99.90
12434;DHT22;6281;49.038;8.372;2022-12-22T05:10:56;11.10;99.90
12434;DHT22;6281;49.038;8.372;2022-12-22T05:13:24;11.10;99.90
12434;DHT22;6281;49.038;8.372;2022-12-22T05:15:51;11.30;99.90
12434;DHT22;6281;49.038;8.372;2022-12-22T05:18:18;11.30;99.90
12434;DHT22;6281;49.038;8.372;2022-12-22T05:20:45;11.20;99.90
12434;DHT22;6281;49.038;8.372;2022-12-22T05:23:11;11.20;99.90
12434;DHT22;6281;49.038;8.372;2022-12-22T05:25:38;11.30;99.90
12434;DHT22;6281;49.038;8.372;2022-12-22T05:28:05;11.30;99.90
12434;DHT22;6281;49.038;8.372;2022-12-22T05:30:34;11.30;99.90
12434;DHT22;6281;49.038;8.372;2022-12-22T05:33:00;11.30;99.90
12434;DHT22;6281;49.038;8.372;2022-12-22T05:35:27;11.50;99.90
12434;DHT22;6281;49.038;8.372;2022-12-22T05:37:54;11.40;99.90
12434;DHT22;6281;49.038;8.372;2022-12-22T05:40:21;11.40;99.90
12434;DHT22;6281;49.038;8.372;2022-12-22T05:42:48;11.40;99.90
12434;DHT22;6281;49.038;8.372;2022-12-22T05:45:16;11.50;99.90
12434;DHT22;6281;49.038;8.372;2022-12-22T05:47:46;11.50;99.90
12434;DHT22;6281;49.038;8.372;2022-12-22T05:50:16;11.50;99.90
12434;DHT22;6281;49.038;8.372;2022-12-22T05:52:43;11.50;99.90
12434;DHT22;6281;49.038;8.372;2022-12-22T05:55:11;11.40;99.90
12434;DHT22;6281;49.038;8.372;2022-12-22T05:57:38;11.40;99.90
12434;DHT22;6281;49.038;8.372;2022-12-22T06:00:07;11.40;99.90
12434;DHT22;6281;49.038;8.372;2022-12-22T06:02:34;11.30;99.90
12434;DHT22;6281;49.038;8.372;2022-12-22T06:05:04;11.40;99.90
12434;DHT22;6281;49.038;8.372;2022-12-22T06:07:31;11.30;99.90
12434;DHT22;6281;49.038;8.372;2022-12-22T06:09:57;11.30;99.90
12434;DHT22;6281;49.038;8.372;2022-12-22T06:12:24;11.30;99.90
12434;DHT22;6281;49.038;8.372;2022-12-22T06:14:51;11.30;99.90
12434;DHT22;6281;49.038;8.372;2022-12-22T06:17:18;11.30;99.90
12434;DHT22;6281;49.038;8.372;2022-12-22T06:19:44;11.40;99.90
12434;DHT22;6281;49.038;8.372;2022-12-22T06:22:12;11.50;99.90
12434;DHT22;6281;49.038;8.372;2022-12-22T06:24:39;11.40;99.90
12434;DHT22;6281;49.038;8.372;2022-12-22T06:27:06;11.40;99.90
12434;DHT22;6281;49.038;8.372;2022-12-22T06:29:35;11.40;99.90
12434;DHT22;6281;49.038;8.372;2022-12-22T06:32:02;11.60;99.90
12434;DHT22;6281;49.038;8.372;2022-12-22T06:34:29;11.40;99.90
12434;DHT22;6281;49.038;8.372;2022-12-22T06:36:56;11.30;99.90
12434;DHT22;6281;49.038;8.372;2022-12-22T06:39:24;11.40;99.90
12434;DHT22;6281;49.038;8.372;2022-12-22T06:41:51;11.40;99.90
12434;DHT22;6281;49.038;8.372;2022-12-22T06:44:36;10.90;99.90
12434;DHT22;6281;49.038;8.372;2022-12-22T06:47:02;11.30;99.90
12434;DHT22;6281;49.038;8.372;2022-12-22T06:49:29;11.20;99.90
12434;DHT22;6281;49.038;8.372;2022-12-22T06:51:56;11.30;99.90
12434;DHT22;6281;49.038;8.372;2022-12-22T06:54:25;11.50;99.90
12434;DHT22;6281;49.038;8.372;2022-12-22T06:56:52;11.60;99.90
12434;DHT22;6281;49.038;8.372;2022-12-22T06:59:19;11.50;99.90
12434;DHT22;6281;49.038;8.372;2022-12-22T07:01:45;11.70;99.90
12434;DHT22;6281;49.038;8.372;2022-12-22T07:04:12;11.80;99.90
12434;DHT22;6281;49.038;8.372;2022-12-22T07:06:44;11.70;99.90
12434;DHT22;6281;49.038;8.372;2022-12-22T07:09:11;11.80;99.90
12434;DHT22;6281;49.038;8.372;2022-12-22T07:11:39;11.90;99.90
12434;DHT22;6281;49.038;8.372;2022-12-22T07:14:06;11.90;99.90
12434;DHT22;6281;49.038;8.372;2022-12-22T07:16:33;11.80;99.90
12434;DHT22;6281;49.038;8.372;2022-12-22T07:19:00;11.90;99.90
12434;DHT22;6281;49.038;8.372;2022-12-22T07:21:27;11.90;99.90
12434;DHT22;6281;49.038;8.372;2022-12-22T07:23:54;12.00;99.90
12434;DHT22;6281;49.038;8.372;2022-12-22T07:26:21;12.00;99.90
12434;DHT22;6281;49.038;8.372;2022-12-22T07:28:49;11.90;99.90
12434;DHT22;6281;49.038;8.372;2022-12-22T07:31:17;12.10;99.90
12434;DHT22;6281;49.038;8.372;2022-12-22T07:33:44;12.10;99.90
12434;DHT22;6281;49.038;8.372;2022-12-22T07:36:13;12.00;99.90
12434;DHT22;6281;49.038;8.372;2022-12-22T07:38:42;11.90;99.90
12434;DHT22;6281;49.038;8.372;2022-12-22T07:41:11;12.00;99.90
12434;DHT22;6281;49.038;8.372;2022-12-22T07:43:58;11.90;99.90
12434;DHT22;6281;49.038;8.372;2022-12-22T07:46:28;11.90;99.90
12434;DHT22;6281;49.038;8.372;2022-12-22T07:48:56;11.90;99.90
12434;DHT22;6281;49.038;8.372;2022-12-22T07:51:41;11.90;99.90
12434;DHT22;6281;49.038;8.372;2022-12-22T07:54:10;11.80;99.90
12434;DHT22;6281;49.038;8.372;2022-12-22T07:56:37;11.80;99.90
12434;DHT22;6281;49.038;8.372;2022-12-22T07:59:06;11.80;99.90
12434;DHT22;6281;49.038;8.372;2022-12-22T08:01:33;11.80;99.90
12434;DHT22;6281;49.038;8.372;2022-12-22T08:04:00;11.80;99.90
12434;DHT22;6281;49.038;8.372;2022-12-22T08:06:27;12.00;99.90
12434;DHT22;6281;49.038;8.372;2022-12-22T08:08:54;11.90;99.90
12434;DHT22;6281;49.038;8.372;2022-12-22T08:11:21;12.00;99.90
12434;DHT22;6281;49.038;8.372;2022-12-22T08:13:48;12.10;99.90
12434;DHT22;6281;49.038;8.372;2022-12-22T08:16:18;12.30;99.90
12434;DHT22;6281;49.038;8.372;2022-12-22T08:18:47;12.30;99.90
12434;DHT22;6281;49.038;8.372;2022-12-22T08:21:14;12.20;99.90
12434;DHT22;6281;49.038;8.372;2022-12-22T08:23:41;12.20;99.90
12434;DHT22;6281;49.038;8.372;2022-12-22T08:26:10;12.10;99.90
12434;DHT22;6281;49.038;8.372;2022-12-22T08:28:43;12.20;99.90
12434;DHT22;6281;49.038;8.372;2022-12-22T08:31:11;12.10;99.90
12434;DHT22;6281;49.038;8.372;2022-12-22T08:33:40;12.10;99.90
12434;DHT22;6281;49.038;8.372;2022-12-22T08:36:08;12.10;99.90
12434;DHT22;6281;49.038;8.372;2022-12-22T08:38:36;12.10;99.90
12434;DHT22;6281;49.038;8.372;2022-12-22T08:41:04;12.10;99.90
12434;DHT22;6281;49.038;8.372;2022-12-22T08:43:32;12.10;99.90
12434;DHT22;6281;49.038;8.372;2022-12-22T08:45:59;12.00;99.90
12434;DHT22;6281;49.038;8.372;2022-12-22T08:48:26;11.70;99.90
12434;DHT22;6281;49.038;8.372;2022-12-22T08:50:54;11.90;99.90
12434;DHT22;6281;49.038;8.372;2022-12-22T08:53:21;11.80;99.90
12434;DHT22;6281;49.038;8.372;2022-12-22T08:55:51;11.70;99.90
12434;DHT22;6281;49.038;8.372;2022-12-22T08:58:19;11.60;99.90
12434;DHT22;6281;49.038;8.372;2022-12-22T09:00:46;11.40;99.90
12434;DHT22;6281;49.038;8.372;2022-12-22T09:03:13;11.40;99.90
12434;DHT22;6281;49.038;8.372;2022-12-22T09:05:40;11.40;99.90
12434;DHT22;6281;49.038;8.372;2022-12-22T09:08:08;11.40;99.90
12434;DHT22;6281;49.038;8.372;2022-12-22T09:10:35;11.20;99.90
12434;DHT22;6281;49.038;8.372;2022-12-22T09:13:02;11.10;99.90
12434;DHT22;6281;49.038;8.372;2022-12-22T09:15:29;11.10;99.90
12434;DHT22;6281;49.038;8.372;2022-12-22T09:17:56;11.10;99.90
12434;DHT22;6281;49.038;8.372;2022-12-22T09:20:23;10.90;99.90
12434;DHT22;6281;49.038;8.372;2022-12-22T09:22:50;10.70;99.90
12434;DHT22;6281;49.038;8.372;2022-12-22T09:25:18;10.70;99.90
12434;DHT22;6281;49.038;8.372;2022-12-22T09:27:45;10.70;99.90
12434;DHT22;6281;49.038;8.372;2022-12-22T09:30:13;10.50;99.90
12434;DHT22;6281;49.038;8.372;2022-12-22T09:32:40;10.50;99.90
12434;DHT22;6281;49.038;8.372;2022-12-22T09:35:06;10.50;99.90
12434;DHT22;6281;49.038;8.372;2022-12-22T09:37:33;10.50;99.90
12434;DHT22;6281;49.038;8.372;2022-12-22T09:40:00;10.60;99.90
12434;DHT22;6281;49.038;8.372;2022-12-22T09:42:32;10.70;99.90
12434;DHT22;6281;49.038;8.372;2022-12-22T09:45:00;10.60;99.90
12434;DHT22;6281;49.038;8.372;2022-12-22T09:47:31;10.70;99.90
12434;DHT22;6281;49.038;8.372;2022-12-22T09:50:00;10.70;99.90
12434;DHT22;6281;49.038;8.372;2022-12-22T09:52:40;10.70;99.90
12434;DHT22;6281;49.038;8.372;2022-12-22T09:55:13;10.70;99.90
12434;DHT22;6281;49.038;8.372;2022-12-22T09:57:42;10.70;99.90
12434;DHT22;6281;49.038;8.372;2022-12-22T10:00:13;10.80;99.90
12434;DHT22;6281;49.038;8.372;2022-12-22T10:02:48;10.80;99.90
12434;DHT22;6281;49.038;8.372;2022-12-22T10:05:21;10.90;99.90
12434;DHT22;6281;49.038;8.372;2022-12-22T10:07:58;10.90;99.90
12434;DHT22;6281;49.038;8.372;2022-12-22T10:10:28;10.90;99.90
12434;DHT22;6281;49.038;8.372;2022-12-22T10:12:58;11.00;99.90
12434;DHT22;6281;49.038;8.372;2022-12-22T10:15:27;10.90;99.90
12434;DHT22;6281;49.038;8.372;2022-12-22T10:18:09;11.00;99.90
12434;DHT22;6281;49.038;8.372;2022-12-22T10:20:36;11.00;99.90
12434;DHT22;6281;49.038;8.372;2022-12-22T10:23:13;11.00;99.90
12434;DHT22;6281;49.038;8.372;2022-12-22T10:25:44;11.00;99.90
12434;DHT22;6281;49.038;8.372;2022-12-22T10:28:23;11.00;99.90
12434;DHT22;6281;49.038;8.372;2022-12-22T10:31:12;10.80;99.90
12434;DHT22;6281;49.038;8.372;2022-12-22T10:33:40;10.70;99.90
12434;DHT22;6281;49.038;8.372;2022-12-22T10:36:07;10.80;99.90
12434;DHT22;6281;49.038;8.372;2022-12-22T10:38:37;10.80;99.90
12434;DHT22;6281;49.038;8.372;2022-12-22T10:41:12;10.70;99.90
12434;DHT22;6281;49.038;8.372;2022-12-22T10:43:47;10.80;99.90
12434;DHT22;6281;49.038;8.372;2022-12-22T10:46:14;10.90;99.90
12434;DHT22;6281;49.038;8.372;2022-12-22T10:48:42;10.70;99.90
12434;DHT22;6281;49.038;8.372;2022-12-22T10:51:11;10.70;99.90
12434;DHT22;6281;49.038;8.372;2022-12-22T10:53:47;10.70;99.90
12434;DHT22;6281;49.038;8.372;2022-12-22T10:56:23;10.60;99.90
12434;DHT22;6281;49.038;8.372;2022-12-22T10:58:54;10.40;99.90
12434;DHT22;6281;49.038;8.372;2022-12-22T11:01:27;10.40;99.90
12434;DHT22;6281;49.038;8.372;2022-12-22T11:03:55;10.60;99.90
12434;DHT22;6281;49.038;8.372;2022-12-22T11:06:22;10.70;99.90
12434;DHT22;6281;49.038;8.372;2022-12-22T11:08:49;10.80;99.90
12434;DHT22;6281;49.038;8.372;2022-12-22T11:11:26;10.80;99.90
12434;DHT22;6281;49.038;8.372;2022-12-22T11:14:04;10.80;99.90
12434;DHT22;6281;49.038;8.372;2022-12-22T11:16:38;10.80;99.90
12434;DHT22;6281;49.038;8.372;2022-12-22T11:19:31;10.80;99.90
12434;DHT22;6281;49.038;8.372;2022-12-22T11:22:08;10.90;99.90
12434;DHT22;6281;49.038;8.372;2022-12-22T11:24:49;11.10;99.90
12434;DHT22;6281;49.038;8.372;2022-12-22T11:27:28;10.90;99.90
12434;DHT22;6281;49.038;8.372;2022-12-22T11:30:07;10.80;99.90
12434;DHT22;6281;49.038;8.372;2022-12-22T11:32:59;10.90;99.90
12434;DHT22;6281;49.038;8.372;2022-12-22T11:35:43;10.80;99.90
12434;DHT22;6281;49.038;8.372;2022-12-22T11:38:20;10.80;99.90
12434;DHT22;6281;49.038;8.372;2022-12-22T11:40:57;10.70;99.90
12434;DHT22;6281;49.038;8.372;2022-12-22T11:43:31;10.70;99.90
12434;DHT22;6281;49.038;8.372;2022-12-22T11:46:14;10.70;99.90
12434;DHT22;6281;49.038;8.372;2022-12-22T11:51:48;10.60;99.90
12434;DHT22;6281;49.038;8.372;2022-12-22T11:54:35;10.60;99.90
12434;DHT22;6281;49.038;8.372;2022-12-22T11:57:13;10.60;99.90
12434;DHT22;6281;49.038;8.372;2022-12-22T11:59:53;10.50;99.90
12434;DHT22;6281;49.038;8.372;2022-12-22T12:02:47;10.50;99.90
12434;DHT22;6281;49.038;8.372;2022-12-22T12:05:31;10.50;99.90
12434;DHT22;6281;49.038;8.372;2022-12-22T12:08:07;10.40;99.90
12434;DHT22;6281;49.038;8.372;2022-12-22T12:10:46;10.40;99.90
12434;DHT22;6281;49.038;8.372;2022-12-22T12:13:21;10.50;99.90
12434;DHT22;6281;49.038;8.372;2022-12-22T12:15:54;10.50;99.90
12434;DHT22;6281;49.038;8.372;2022-12-22T12:18:42;10.60;99.90
12434;DHT22;6281;49.038;8.372;2022-12-22T12:21:25;10.50;99.90
12434;DHT22;6281;49.038;8.372;2022-12-22T12:24:03;10.50;99.90
12434;DHT22;6281;49.038;8.372;2022-12-22T12:26:39;10.50;99.90
12434;DHT22;6281;49.038;8.372;2022-12-22T12:29:14;10.50;99.90
12434;DHT22;6281;49.038;8.372;2022-12-22T12:31:45;10.40;99.90
12434;DHT22;6281;49.038;8.372;2022-12-22T12:34:16;10.40;99.90
12434;DHT22;6281;49.038;8.372;2022-12-22T12:36:47;10.40;99.90
12434;DHT22;6281;49.038;8.372;2022-12-22T12:39:20;10.40;99.90
12434;DHT22;6281;49.038;8.372;2022-12-22T12:41:57;10.40;99.90
12434;DHT22;6281;49.038;8.372;2022-12-22T12:44:29;10.40;99.90
12434;DHT22;6281;49.038;8.372;2022-12-22T12:47:20;10.30;99.90
12434;DHT22;6281;49.038;8.372;2022-12-22T12:53:08;10.30;99.90
12434;DHT22;6281;49.038;8.372;2022-12-22T12:55:57;10.30;99.90
12434;DHT22;6281;49.038;8.372;2022-12-22T12:58:50;10.50;99.90
12434;DHT22;6281;49.038;8.372;2022-12-22T13:10:22;10.60;99.90
12434;DHT22;6281;49.038;8.372;2022-12-22T13:12:51;10.60;99.90
12434;DHT22;6281;49.038;8.372;2022-12-22T13:15:29;10.70;99.90
12434;DHT22;6281;49.038;8.372;2022-12-22T13:17:57;10.50;99.90
12434;DHT22;6281;49.038;8.372;2022-12-22T13:20:27;10.50;99.90
12434;DHT22;6281;49.038;8.372;2022-12-22T13:22:57;10.40;99.90
12434;DHT22;6281;49.038;8.372;2022-12-22T13:25:39;10.20;99.90
12434;DHT22;6281;49.038;8.372;2022-12-22T13:28:13;10.10;99.90
12434;DHT22;6281;49.038;8.372;2022-12-22T13:30:44;10.10;99.90
12434;DHT22;6281;49.038;8.372;2022-12-22T13:33:15;10.20;99.90
12434;DHT22;6281;49.038;8.372;2022-12-22T13:35:44;10.20;99.90
12434;DHT22;6281;49.038;8.372;2022-12-22T13:38:26;10.20;99.90
12434;DHT22;6281;49.038;8.372;2022-12-22T13:40:55;10.30;99.90
12434;DHT22;6281;49.038;8.372;2022-12-22T13:43:23;10.30;99.90
12434;DHT22;6281;49.038;8.372;2022-12-22T13:45:52;10.40;99.90
12434;DHT22;6281;49.038;8.372;2022-12-22T13:48:23;10.40;99.90
12434;DHT22;6281;49.038;8.372;2022-12-22T13:50:55;10.50;99.90
12434;DHT22;6281;49.038;8.372;2022-12-22T13:53:29;10.50;99.90
12434;DHT22;6281;49.038;8.372;2022-12-22T13:55:58;10.60;99.90
12434;DHT22;6281;49.038;8.372;2022-12-22T13:58:27;10.50;99.90
12434;DHT22;6281;49.038;8.372;2022-12-22T14:01:03;10.50;99.90
12434;DHT22;6281;49.038;8.372;2022-12-22T14:03:30;10.50;99.90
12434;DHT22;6281;49.038;8.372;2022-12-22T14:05:57;10.50;99.90
12434;DHT22;6281;49.038;8.372;2022-12-22T14:08:24;10.50;99.90
12434;DHT22;6281;49.038;8.372;2022-12-22T14:10:51;10.50;99.90
12434;DHT22;6281;49.038;8.372;2022-12-22T14:13:25;10.50;99.90
12434;DHT22;6281;49.038;8.372;2022-12-22T14:15:59;10.50;99.90
12434;DHT22;6281;49.038;8.372;2022-12-22T14:18:27;10.50;99.90
12434;DHT22;6281;49.038;8.372;2022-12-22T14:20:54;10.50;99.90
12434;DHT22;6281;49.038;8.372;2022-12-22T14:23:25;10.60;99.90
12434;DHT22;6281;49.038;8.372;2022-12-22T14:25:54;10.60;99.90
12434;DHT22;6281;49.038;8.372;2022-12-22T14:28:26;10.60;99.90
12434;DHT22;6281;49.038;8.372;2022-12-22T14:30:57;10.70;99.90
12434;DHT22;6281;49.038;8.372;2022-12-22T14:33:30;10.70;99.90
12434;DHT22;6281;49.038;8.372;2022-12-22T14:36:19;10.70;99.90
12434;DHT22;6281;49.038;8.372;2022-12-22T14:38:49;10.90;99.90
12434;DHT22;6281;49.038;8.372;2022-12-22T14:41:20;10.90;99.90
12434;DHT22;6281;49.038;8.372;2022-12-22T14:44:12;10.90;99.90
12434;DHT22;6281;49.038;8.372;2022-12-22T14:46:40;10.90;99.90
12434;DHT22;6281;49.038;8.372;2022-12-22T14:49:13;10.90;99.90
12434;DHT22;6281;49.038;8.372;2022-12-22T14:51:40;11.00;99.90
12434;DHT22;6281;49.038;8.372;2022-12-22T14:54:17;10.90;99.90
12434;DHT22;6281;49.038;8.372;2022-12-22T14:56:47;11.00;99.90
12434;DHT22;6281;49.038;8.372;2022-12-22T14:59:24;11.00;99.90
12434;DHT22;6281;49.038;8.372;2022-12-22T15:01:57;11.20;99.90
12434;DHT22;6281;49.038;8.372;2022-12-22T15:04:24;11.10;99.90
12434;DHT22;6281;49.038;8.372;2022-12-22T15:06:51;11.20;99.90
12434;DHT22;6281;49.038;8.372;2022-12-22T15:09:28;11.10;99.90
12434;DHT22;6281;49.038;8.372;2022-12-22T15:12:02;11.20;99.90
12434;DHT22;6281;49.038;8.372;2022-12-22T15:14:34;11.20;99.90
12434;DHT22;6281;49.038;8.372;2022-12-22T15:17:02;11.20;99.90
12434;DHT22;6281;49.038;8.372;2022-12-22T15:19:31;11.20;99.90
12434;DHT22;6281;49.038;8.372;2022-12-22T15:21:58;11.20;99.90
12434;DHT22;6281;49.038;8.372;2022-12-22T15:24:25;11.20;99.90
12434;DHT22;6281;49.038;8.372;2022-12-22T15:26:54;11.10;99.90
12434;DHT22;6281;49.038;8.372;2022-12-22T15:29:21;11.10;99.90
12434;DHT22;6281;49.038;8.372;2022-12-22T15:31:49;11.10;99.90
12434;DHT22;6281;49.038;8.372;2022-12-22T15:34:21;11.10;99.90
12434;DHT22;6281;49.038;8.372;2022-12-22T15:36:49;11.10;99.90
12434;DHT22;6281;49.038;8.372;2022-12-22T15:39:17;11.10;99.90
12434;DHT22;6281;49.038;8.372;2022-12-22T15:41:45;11.10;99.90
12434;DHT22;6281;49.038;8.372;2022-12-22T15:44:12;11.10;99.90
12434;DHT22;6281;49.038;8.372;2022-12-22T15:46:41;11.10;99.90
12434;DHT22;6281;49.038;8.372;2022-12-22T15:49:14;11.00;99.90
12434;DHT22;6281;49.038;8.372;2022-12-22T15:51:44;11.10;99.90
12434;DHT22;6281;49.038;8.372;2022-12-22T15:54:14;11.00;99.90
12434;DHT22;6281;49.038;8.372;2022-12-22T15:56:42;11.10;99.90
12434;DHT22;6281;49.038;8.372;2022-12-22T15:59:13;11.10;99.90
12434;DHT22;6281;49.038;8.372;2022-12-22T16:01:41;11.10;99.90
12434;DHT22;6281;49.038;8.372;2022-12-22T16:04:08;11.00;99.90
12434;DHT22;6281;49.038;8.372;2022-12-22T16:06:37;11.00;99.90
12434;DHT22;6281;49.038;8.372;2022-12-22T16:09:06;10.90;99.90
12434;DHT22;6281;49.038;8.372;2022-12-22T16:11:36;10.90;99.90
12434;DHT22;6281;49.038;8.372;2022-12-22T16:14:03;10.90;99.90
12434;DHT22;6281;49.038;8.372;2022-12-22T16:16:30;10.80;99.90
12434;DHT22;6281;49.038;8.372;2022-12-22T16:18:57;10.80;99.90
12434;DHT22;6281;49.038;8.372;2022-12-22T16:21:29;10.80;99.90
12434;DHT22;6281;49.038;8.372;2022-12-22T16:23:59;10.80;99.90
12434;DHT22;6281;49.038;8.372;2022-12-22T16:26:28;10.70;99.90
12434;DHT22;6281;49.038;8.372;2022-12-22T16:28:55;10.60;99.90
12434;DHT22;6281;49.038;8.372;2022-12-22T16:31:24;10.60;99.90
12434;DHT22;6281;49.038;8.372;2022-12-22T16:33:51;10.50;99.90
12434;DHT22;6281;49.038;8.372;2022-12-22T16:36:18;10.40;99.90
12434;DHT22;6281;49.038;8.372;2022-12-22T16:38:45;10.50;99.90
12434;DHT22;6281;49.038;8.372;2022-12-22T16:41:22;10.50;99.90
12434;DHT22;6281;49.038;8.372;2022-12-22T16:43:50;10.40;99.90
12434;DHT22;6281;49.038;8.372;2022-12-22T16:46:19;10.40;99.90